Time;durP1;ratioP1;P1;durP2;ratioP2;P2;SDS_P1;SDS_P2;PMS_P1;PMS_P2;Temp;Humidity;BMP_temperature;BMP_pressure;BME280_temperature;BME280_humidity;BME280_pressure;Samples;Min_cycle;Max_cycle;Signal;HPM_P1;HPM_P2
2023/06/04 00:00:59;;;;;;;;;7.50;5.50;;;;;20.85;38.73;101303.88;5018991;28;45422;-48
2023/06/04 00:03:24;;;;;;;;;5.75;5.75;;;;;20.83;39.06;101314.06;5018545;28;45986;-47
2023/06/04 00:05:50;;;;;;;;;7.00;5.25;;;;;20.78;38.64;101296.78;5018651;28;45408;-46
2023/06/04 00:08:15;;;;;;;;;5.75;5.75;;;;;20.77;39.13;101306.75;5018903;28;45473;-46
2023/06/04 00:10:40;;;;;;;;;9.75;8.50;;;;;20.74;38.97;101303.63;5019264;28;45497;-48
2023/06/04 00:13:06;;;;;;;;;8.00;6.50;;;;;20.68;39.21;101297.97;5018710;28;46230;-48
2023/06/04 00:15:32;;;;;;;;;6.50;5.00;;;;;20.66;39.25;101304.63;5018529;28;45401;-47
2023/06/04 00:17:57;;;;;;;;;6.75;5.25;;;;;20.62;39.07;101303.34;5018724;28;45584;-47
2023/06/04 00:20:22;;;;;;;;;6.25;6.25;;;;;20.60;39.50;101311.66;5018660;28;45466;-47
2023/06/04 00:22:48;;;;;;;;;4.75;4.75;;;;;20.57;39.38;101303.97;5018431;28;45975;-48
2023/06/04 00:25:13;;;;;;;;;5.00;5.00;;;;;20.55;39.57;101306.00;5018570;28;45454;-47
2023/06/04 00:27:39;;;;;;;;;9.75;6.50;;;;;20.54;39.29;101315.16;5018919;28;45413;-46
2023/06/04 00:30:05;;;;;;;;;4.75;4.75;;;;;20.53;39.14;101310.78;5018501;28;45429;-47
2023/06/04 00:32:30;;;;;;;;;6.00;5.00;;;;;20.51;39.21;101312.00;5018073;28;46234;-46
2023/06/04 00:34:57;;;;;;;;;4.75;4.75;;;;;20.49;39.33;101303.28;5018290;28;45394;-46
2023/06/04 00:37:23;;;;;;;;;7.50;5.50;;;;;20.44;39.49;101312.78;5018380;28;45424;-46
2023/06/04 00:39:49;;;;;;;;;4.75;4.75;;;;;20.42;39.73;101301.31;5018800;28;45377;-45
2023/06/04 00:42:15;;;;;;;;;5.75;5.75;;;;;20.40;39.47;101316.09;5017849;28;46151;-48
2023/06/04 00:44:45;;;;;;;;;5.75;4.50;;;;;20.37;39.87;101311.91;5018574;28;45380;-47
2023/06/04 00:47:12;;;;;;;;;5.75;4.00;;;;;20.22;39.84;101289.53;5018253;28;45275;-48
2023/06/04 00:49:38;;;;;;;;;1.75;1.75;;;;;20.28;39.62;101302.28;5018525;28;45598;-49
2023/06/04 00:52:03;;;;;;;;;5.50;5.50;;;;;20.24;39.56;101300.16;5018218;28;45335;-47
2023/06/04 00:54:30;;;;;;;;;5.00;5.00;;;;;20.22;39.60;101307.63;5018051;28;45753;-48
2023/06/04 00:56:55;;;;;;;;;7.25;7.25;;;;;20.08;39.92;101294.00;5018203;28;45399;-47
2023/06/04 00:59:21;;;;;;;;;6.00;4.25;;;;;20.17;40.06;101308.22;5018090;28;45439;-46
2023/06/04 01:02:01;;;;;;;;;6.00;6.00;;;;;20.13;39.93;101305.06;5018023;28;46001;-46
2023/06/04 01:04:32;;;;;;;;;8.25;4.50;;;;;20.15;39.67;101310.28;5016661;28;45242;-45
2023/06/04 01:07:02;;;;;;;;;4.50;4.00;;;;;20.14;39.95;101311.28;5018028;28;45408;-46
2023/06/04 01:09:28;;;;;;;;;6.50;5.00;;;;;20.11;40.06;101317.94;5018054;28;45360;-47
2023/06/04 01:11:54;;;;;;;;;6.50;5.00;;;;;20.09;40.03;101317.28;5017592;28;45372;-48
2023/06/04 01:14:19;;;;;;;;;6.00;5.75;;;;;20.02;39.79;101310.19;5017544;28;45391;-46
2023/06/04 01:17:20;;;;;;;;;4.00;4.00;;;;;20.05;40.09;101307.91;5017232;28;45310;-48
2023/06/04 01:20:22;;;;;;;;;5.75;3.75;;;;;20.00;39.98;101318.47;5008679;28;45456;-49
2023/06/04 01:22:51;;;;;;;;;4.50;4.00;;;;;19.98;40.31;101317.84;5017612;28;46304;-46
2023/06/04 01:25:20;;;;;;;;;5.00;5.00;;;;;19.98;39.96;101311.59;5017666;28;45363;-48
2023/06/04 01:27:50;;;;;;;;;4.75;4.75;;;;;19.93;40.20;101312.16;5017735;28;45333;-48
2023/06/04 01:30:16;;;;;;;;;6.50;5.50;;;;;19.92;40.56;101307.78;5017846;28;45347;-47
2023/06/04 01:32:42;;;;;;;;;3.25;3.00;;;;;19.88;40.27;101314.59;5017296;28;46362;-48
2023/06/04 01:35:10;;;;;;;;;3.25;3.25;;;;;19.87;40.15;101308.38;5017800;28;45439;-47
2023/06/04 01:37:36;;;;;;;;;5.00;4.75;;;;;19.86;40.28;101313.97;5017615;28;45439;-48
2023/06/04 01:40:01;;;;;;;;;4.50;3.50;;;;;19.84;40.47;101314.16;5017701;28;45412;-47
2023/06/04 01:42:26;;;;;;;;;8.00;5.75;;;;;19.83;40.25;101319.75;5017427;28;46206;-49
2023/06/04 01:44:52;;;;;;;;;4.00;4.00;;;;;19.80;40.61;101314.75;5017554;28;45401;-47
2023/06/04 01:47:17;;;;;;;;;5.50;5.50;;;;;19.76;40.44;101311.59;5017362;28;45536;-45
2023/06/04 01:49:42;;;;;;;;;4.75;3.00;;;;;19.76;40.39;101317.00;5017736;28;45400;-46
2023/06/04 01:52:08;;;;;;;;;5.00;5.00;;;;;19.76;40.48;101313.47;4999428;28;46790;-45
2023/06/04 01:54:33;;;;;;;;;7.50;5.00;;;;;19.62;40.35;101299.84;5017265;28;45345;-45
2023/06/04 01:56:59;;;;;;;;;6.00;4.50;;;;;19.70;40.75;101317.78;5017374;28;45465;-47
2023/06/04 01:59:25;;;;;;;;;3.50;3.50;;;;;19.68;40.84;101317.97;5016771;28;45497;-47
2023/06/04 02:01:50;;;;;;;;;5.00;3.00;;;;;19.67;40.68;101324.38;5016922;28;45330;-48
2023/06/04 02:04:15;;;;;;;;;5.00;4.00;;;;;19.66;40.76;101328.13;5016931;28;45489;-48
2023/06/04 02:06:41;;;;;;;;;5.00;4.00;;;;;19.65;40.36;101326.44;5017383;28;45393;-48
2023/06/04 02:09:06;;;;;;;;;4.75;4.75;;;;;19.63;40.85;101330.34;5017175;28;45206;-49
2023/06/04 02:11:31;;;;;;;;;7.00;4.00;;;;;19.60;40.32;101328.03;5017040;28;45342;-46
2023/06/04 02:13:57;;;;;;;;;6.00;3.50;;;;;19.58;40.66;101333.59;5016490;28;45346;-49
2023/06/04 02:16:22;;;;;;;;;4.00;4.00;;;;;19.56;40.58;101332.13;5017073;28;45374;-47
2023/06/04 02:18:48;;;;;;;;;6.00;4.00;;;;;19.54;40.67;101331.47;5017104;28;45310;-48
2023/06/04 02:21:13;;;;;;;;;2.25;2.25;;;;;19.52;41.16;101333.56;5016744;28;46265;-46
2023/06/04 02:23:38;;;;;;;;;4.75;4.00;;;;;19.51;40.88;101327.31;5016846;28;45362;-49
2023/06/04 02:26:04;;;;;;;;;5.00;4.25;;;;;19.48;40.65;101333.09;5017039;28;45290;-48
2023/06/04 02:28:29;;;;;;;;;5.25;3.50;;;;;19.48;40.61;101333.09;5016890;28;45402;-48
2023/06/04 02:30:54;;;;;;;;;3.25;3.25;;;;;19.44;41.13;101329.94;5016566;28;45314;-46
2023/06/04 02:33:20;;;;;;;;;5.00;4.25;;;;;19.39;41.04;101334.25;5016437;28;45613;-48
2023/06/04 02:35:45;;;;;;;;;6.25;4.25;;;;;19.40;41.11;101341.28;5016660;28;45386;-46
2023/06/04 02:38:11;;;;;;;;;6.00;5.75;;;;;19.38;40.85;101346.91;5016966;28;45301;-47
2023/06/04 02:40:37;;;;;;;;;6.50;4.25;;;;;19.38;41.19;101335.25;4998593;28;46551;-46
2023/06/04 02:43:02;;;;;;;;;4.00;4.00;;;;;19.33;41.05;101332.28;5016331;28;45404;-47
2023/06/04 02:45:28;;;;;;;;;4.00;4.00;;;;;19.34;40.97;101332.13;5016617;28;45367;-48
2023/06/04 02:47:54;;;;;;;;;7.00;3.75;;;;;19.18;41.02;101308.06;5016430;28;45494;-49
2023/06/04 02:50:19;;;;;;;;;5.00;3.75;;;;;19.16;41.19;101318.19;5016111;28;46041;-47
2023/06/04 02:52:45;;;;;;;;;5.00;4.00;;;;;19.33;41.21;101343.91;5016362;28;45374;-48
2023/06/04 02:55:11;;;;;;;;;5.50;3.00;;;;;19.29;41.22;101336.38;5015918;28;45335;-48
2023/06/04 02:57:38;;;;;;;;;4.00;4.00;;;;;19.27;40.93;101338.44;5016453;28;45512;-48
2023/06/04 03:00:11;;;;;;;;;3.25;3.25;;;;;19.28;41.17;101340.94;5016060;28;46210;-47
2023/06/04 03:02:38;;;;;;;;;8.00;4.50;;;;;19.15;41.43;101333.53;5014992;28;45557;-48
2023/06/04 03:05:04;;;;;;;;;5.00;4.25;;;;;19.24;40.99;101336.97;5016087;28;45244;-47
2023/06/04 03:07:29;;;;;;;;;4.00;4.00;;;;;19.23;41.32;101337.16;5016480;28;45445;-48
2023/06/04 03:09:55;;;;;;;;;5.25;4.00;;;;;19.21;41.13;101342.72;5015966;28;45344;-49
2023/06/04 03:12:21;;;;;;;;;7.00;3.50;;;;;19.19;41.20;101340.22;5015870;28;45487;-48
2023/06/04 03:14:46;;;;;;;;;5.00;5.00;;;;;19.19;41.13;101337.53;5016383;28;45846;-48
2023/06/04 03:17:12;;;;;;;;;6.00;3.00;;;;;19.18;41.12;101337.72;5016212;28;45413;-45
2023/06/04 03:19:40;;;;;;;;;3.75;3.75;;;;;19.16;41.12;101337.88;5016019;28;46295;-48
2023/06/04 03:22:06;;;;;;;;;6.00;4.25;;;;;19.16;41.25;101345.16;5015834;28;45314;-49
2023/06/04 03:24:37;;;;;;;;;5.75;5.00;;;;;19.14;41.24;101342.66;5015904;28;45311;-48
2023/06/04 03:27:03;;;;;;;;;5.00;3.75;;;;;19.12;41.21;101335.75;5015252;28;45246;-46
2023/06/04 03:29:30;;;;;;;;;4.00;4.00;;;;;19.08;41.19;101338.00;5015597;28;46329;-48
2023/06/04 03:31:56;;;;;;;;;5.00;5.00;;;;;19.06;41.24;101331.13;4998264;28;45482;-48
2023/06/04 03:34:24;;;;;;;;;3.67;3.00;;;;;19.03;41.49;101336.91;5015162;28;45478;-47
2023/06/04 03:36:50;;;;;;;;;4.00;3.33;;;;;19.02;41.41;101337.94;5016123;28;45677;-46
2023/06/04 03:39:16;;;;;;;;;5.33;3.33;;;;;19.02;41.43;101340.63;5015515;28;46320;-46
2023/06/04 03:41:41;;;;;;;;;5.00;3.67;;;;;19.00;41.34;101337.25;5015733;28;45419;-50
2023/06/04 03:44:06;;;;;;;;;6.00;5.25;;;;;18.98;41.39;101339.31;5015559;28;45848;-48
2023/06/04 03:46:33;;;;;;;;;4.75;4.75;;;;;18.98;41.27;101336.63;5016007;28;45370;-48
2023/06/04 03:48:58;;;;;;;;;3.00;3.00;;;;;18.95;41.41;101341.34;5015291;28;46175;-48
2023/06/04 03:51:25;;;;;;;;;6.00;4.00;;;;;18.93;41.56;101345.28;5015477;28;45436;-48
2023/06/04 03:53:50;;;;;;;;;6.00;3.33;;;;;18.91;41.54;101341.91;5015690;28;45270;-49
2023/06/04 03:56:15;;;;;;;;;5.67;4.00;;;;;18.91;41.56;101345.44;4997783;28;45482;-48
2023/06/04 03:58:41;;;;;;;;;8.00;5.33;;;;;18.88;41.39;101342.31;5015662;28;46008;-48
2023/06/04 04:01:06;;;;;;;;;3.75;3.75;;;;;18.86;41.44;101347.03;5014871;28;45544;-47
2023/06/04 04:03:34;;;;;;;;;3.67;3.67;;;;;18.85;41.45;101345.38;5015442;28;45401;-47
2023/06/04 04:06:00;;;;;;;;;4.00;4.00;;;;;18.81;41.32;101347.59;5015882;28;45574;-49
2023/06/04 04:08:31;;;;;;;;;6.67;3.67;;;;;18.80;41.50;101351.31;5015150;28;47157;-52
2023/06/04 04:10:57;;;;;;;;;3.50;3.00;;;;;18.82;41.61;101356.53;5015434;28;45386;-45
2023/06/04 04:13:22;;;;;;;;;8.67;4.33;;;;;18.81;41.48;101355.69;5015423;28;45319;-46
2023/06/04 04:15:52;;;;;;;;;5.33;4.33;;;;;18.74;41.62;101346.66;5015523;28;45398;-45
2023/06/04 04:18:19;;;;;;;;;3.33;3.33;;;;;18.78;41.51;101355.22;5015107;28;47362;-46
2023/06/04 04:20:45;;;;;;;;;3.33;3.33;;;;;18.75;41.84;101369.06;5015072;28;45375;-47
2023/06/04 04:23:11;;;;;;;;;5.33;5.00;;;;;18.74;41.53;101367.41;5015579;28;45262;-48
2023/06/04 04:25:37;;;;;;;;;5.67;4.33;;;;;18.70;41.44;101359.66;5015384;28;45317;-44
2023/06/04 04:28:06;;;;;;;;;5.00;3.33;;;;;18.69;41.46;101362.53;5014932;28;47003;-50
2023/06/04 04:30:33;;;;;;;;;6.67;4.00;;;;;18.66;41.43;101362.88;5014852;28;45318;-46
2023/06/04 04:32:59;;;;;;;;;4.00;2.67;;;;;18.59;41.79;101349.34;5014878;28;45804;-50
2023/06/04 04:35:25;;;;;;;;;6.33;3.00;;;;;18.62;41.67;101358.88;5015229;28;45501;-50
2023/06/04 04:37:51;;;;;;;;;6.67;5.00;;;;;18.60;41.50;101361.78;5016400;28;46183;-48
2023/06/04 04:40:16;;;;;;;;;5.33;4.00;;;;;18.60;41.36;101360.94;5017447;28;45409;-47
2023/06/04 04:42:42;;;;;;;;;3.67;3.33;;;;;18.59;41.45;101370.06;5018811;28;45298;-48
2023/06/04 04:45:07;;;;;;;;;5.00;5.00;;;;;18.58;41.48;101366.53;5018651;28;45462;-49
2023/06/04 04:47:33;;;;;;;;;7.00;6.00;;;;;18.58;41.69;101369.22;5018249;28;45571;-46
2023/06/04 04:49:58;;;;;;;;;9.33;7.00;;;;;18.48;41.48;101352.47;5018032;28;45425;-48
2023/06/04 04:52:23;;;;;;;;;5.00;4.00;;;;;18.55;41.52;101374.97;5018498;28;45352;-48
2023/06/04 04:54:49;;;;;;;;;4.00;4.00;;;;;18.55;41.41;101366.88;5018405;28;45451;-46
2023/06/04 04:57:14;;;;;;;;;5.00;5.00;;;;;18.49;41.48;101361.38;5018167;28;46063;-47
2023/06/04 04:59:40;;;;;;;;;4.67;4.00;;;;;18.51;41.61;101372.84;5018225;28;45380;-47
2023/06/04 05:02:05;;;;;;;;;4.67;3.00;;;;;18.50;41.30;101374.69;5018198;28;45737;-47
2023/06/04 05:04:30;;;;;;;;;4.00;4.00;;;;;18.52;41.40;101378.03;5018253;28;45418;-48
2023/06/04 05:06:55;;;;;;;;;2.67;2.33;;;;;18.52;41.86;101378.03;5018039;28;46184;-47
2023/06/04 05:09:21;;;;;;;;;3.33;3.33;;;;;18.53;41.48;101378.84;5000093;28;45876;-49
2023/06/04 05:11:47;;;;;;;;;6.00;4.00;;;;;18.56;41.40;101381.19;5017981;28;45405;-46
2023/06/04 05:14:12;;;;;;;;;5.00;3.33;;;;;18.54;41.47;101384.09;5018289;28;45314;-46
2023/06/04 05:16:40;;;;;;;;;3.33;3.33;;;;;18.55;41.41;101377.66;5017891;28;46538;-49
2023/06/04 05:19:06;;;;;;;;;4.67;3.00;;;;;18.56;41.33;101387.41;5017738;28;45819;-48
2023/06/04 05:21:31;;;;;;;;;5.33;4.00;;;;;18.56;41.29;101382.03;5017916;28;45255;-46
2023/06/04 05:23:56;;;;;;;;;2.33;2.00;;;;;18.56;41.60;101378.50;5018005;28;45322;-47
2023/06/04 05:26:23;;;;;;;;;3.00;3.00;;;;;18.57;41.41;101385.56;5017621;28;46161;-48
2023/06/04 05:28:49;;;;;;;;;2.00;2.00;;;;;18.58;41.39;101389.91;5016962;28;45335;-48
2023/06/04 05:31:15;;;;;;;;;3.00;1.67;;;;;18.57;41.32;101389.09;5017772;28;45294;-46
2023/06/04 05:33:41;;;;;;;;;3.00;3.00;;;;;18.59;41.38;101399.69;5017785;28;45355;-46
2023/06/04 05:36:07;;;;;;;;;4.00;2.00;;;;;18.50;41.11;101379.22;5017484;28;46122;-49
2023/06/04 05:38:32;;;;;;;;;3.33;3.00;;;;;18.59;41.24;101395.16;5017816;28;45434;-48
2023/06/04 05:40:58;;;;;;;;;4.00;3.00;;;;;18.58;41.33;101390.78;5017610;28;45654;-47
2023/06/04 05:43:23;;;;;;;;;3.67;3.00;;;;;18.63;41.26;101401.84;5017828;28;45428;-47
2023/06/04 05:45:49;;;;;;;;;5.00;3.00;;;;;18.65;41.27;101396.25;5017303;28;46349;-48
2023/06/04 05:48:14;;;;;;;;;3.00;3.00;;;;;18.66;41.01;101404.16;5017336;28;45353;-48
2023/06/04 05:50:40;;;;;;;;;6.00;4.00;;;;;18.66;41.10;101409.53;5016788;28;45556;-48
2023/06/04 05:53:06;;;;;;;;;3.33;2.67;;;;;18.68;41.13;101415.59;5017589;28;45417;-48
2023/06/04 05:55:32;;;;;;;;;5.00;3.00;;;;;18.70;41.02;101413.56;5017239;28;46113;-46
2023/06/04 05:57:57;;;;;;;;;2.33;2.00;;;;;18.72;41.00;101413.41;5017208;28;45247;-44
2023/06/04 06:00:23;;;;;;;;;4.33;3.00;;;;;18.77;41.15;101412.84;5017374;28;45506;-48
2023/06/04 06:02:50;;;;;;;;;2.00;2.00;;;;;18.77;40.94;101410.16;5017419;28;45357;-48
2023/06/04 06:05:17;;;;;;;;;2.00;2.00;;;;;18.82;40.83;101422.06;5016815;28;47346;-48
2023/06/04 06:07:43;;;;;;;;;5.00;3.00;;;;;18.84;41.03;101417.31;5017197;28;45290;-46
2023/06/04 06:10:09;;;;;;;;;4.33;3.67;;;;;18.84;40.80;101411.09;5017321;28;45359;-46
2023/06/04 06:12:34;;;;;;;;;3.67;2.67;;;;;18.78;40.92;101396.47;5017403;28;45445;-47
2023/06/04 06:15:00;;;;;;;;;3.67;3.00;;;;;18.96;40.87;101417.69;5016949;28;45411;-49
2023/06/04 06:17:26;;;;;;;;;3.00;3.00;;;;;19.01;40.95;101422.53;5017087;28;45414;-49
2023/06/04 06:19:55;;;;;;;;;4.67;3.00;;;;;19.05;40.76;101424.69;5017104;28;45833;-46
2023/06/04 06:22:20;;;;;;;;;3.00;3.00;;;;;19.11;40.56;101431.19;5017430;28;45481;-50
2023/06/04 06:24:48;;;;;;;;;4.33;2.00;;;;;19.13;40.66;101424.59;5016645;28;46937;-49
2023/06/04 06:27:13;;;;;;;;;4.67;3.67;;;;;19.24;40.51;101427.84;5016860;28;45364;-47
2023/06/04 06:29:40;;;;;;;;;2.00;2.00;;;;;19.25;40.57;101418.72;5017026;28;45452;-47
2023/06/04 06:32:06;;;;;;;;;2.00;2.00;;;;;19.40;40.54;101423.06;5017169;28;45387;-46
2023/06/04 06:34:31;;;;;;;;;4.33;3.00;;;;;20.48;39.18;101415.97;4998755;28;48715;-48
2023/06/04 06:36:57;;;;;;;;;22.33;19.00;;;;;21.91;37.21;101417.13;5016601;28;45422;-46
2023/06/04 06:39:22;;;;;;;;;9.00;8.00;;;;;22.69;35.68;101427.44;5016863;28;45215;-48
2023/06/04 06:41:48;;;;;;;;;3.00;3.00;;;;;23.31;34.20;101415.22;5016938;28;45425;-47
2023/06/04 06:44:14;;;;;;;;;5.00;4.00;;;;;24.60;33.44;101411.31;5016379;28;46201;-46
2023/06/04 06:46:40;;;;;;;;;6.50;4.00;;;;;25.86;31.10;101410.69;5016600;28;45259;-49
2023/06/04 06:49:05;;;;;;;;;6.00;3.50;;;;;26.93;29.79;101411.72;5016380;28;45350;-46
2023/06/04 06:51:30;;;;;;;;;4.25;4.00;;;;;27.84;29.12;101410.88;5016759;28;45463;-48
2023/06/04 06:53:56;;;;;;;;;3.00;3.00;;;;;28.59;27.72;101415.19;5016308;28;46001;-48
2023/06/04 06:56:21;;;;;;;;;2.00;2.00;;;;;29.28;27.12;101412.03;5016502;28;45365;-48
2023/06/04 06:58:47;;;;;;;;;3.75;3.75;;;;;29.72;25.68;101394.75;5016479;28;45407;-48
2023/06/04 07:01:13;;;;;;;;;1.50;1.50;;;;;30.35;25.56;101408.78;5015631;28;45279;-49
2023/06/04 07:03:39;;;;;;;;;3.50;3.00;;;;;30.89;24.38;101405.88;5016170;28;46139;-48
2023/06/04 07:06:05;;;;;;;;;3.80;2.80;;;;;31.38;24.04;101406.38;4998373;28;45438;-47
2023/06/04 07:08:31;;;;;;;;;3.80;3.20;;;;;31.79;23.55;101409.25;5016415;28;45388;-48
2023/06/04 07:10:57;;;;;;;;;2.75;2.75;;;;;32.19;23.30;101404.91;5016655;28;45398;-48
2023/06/04 07:13:22;;;;;;;;;4.50;2.00;;;;;32.56;22.94;101403.81;5016263;28;46248;-46
2023/06/04 07:15:47;;;;;;;;;3.00;3.00;;;;;32.96;21.89;101413.94;5016216;28;45367;-47
2023/06/04 07:18:13;;;;;;;;;3.75;2.50;;;;;33.37;21.40;101400.78;5016392;28;45307;-46
2023/06/04 07:20:38;;;;;;;;;2.50;2.00;;;;;33.66;21.56;101411.13;5016338;28;45292;-48
2023/06/04 07:23:04;;;;;;;;;5.25;3.00;;;;;33.93;20.59;101408.75;5016052;28;45413;-46
2023/06/04 07:25:29;;;;;;;;;4.00;2.50;;;;;34.15;21.20;101416.63;5016249;28;45162;-48
2023/06/04 07:27:57;;;;;;;;;2.75;2.75;;;;;34.39;20.23;101413.09;5016284;28;45322;-48
2023/06/04 07:30:23;;;;;;;;;3.80;3.60;;;;;34.56;19.84;101413.50;5016151;28;45346;-48
2023/06/04 07:32:49;;;;;;;;;3.40;2.80;;;;;34.78;19.85;101401.94;5015524;28;46197;-46
2023/06/04 07:35:15;;;;;;;;;3.00;3.00;;;;;35.11;20.20;101404.91;5015735;28;45391;-47
2023/06/04 07:37:41;;;;;;;;;2.80;2.60;;;;;35.38;19.89;101410.63;4998297;28;45399;-46
2023/06/04 07:40:07;;;;;;;;;1.00;1.00;;;;;35.67;19.49;101413.28;5015854;28;45481;-46
2023/06/04 07:42:32;;;;;;;;;4.40;2.20;;;;;35.82;19.19;101398.41;5015178;28;46219;-46
2023/06/04 07:44:58;;;;;;;;;3.75;3.75;;;;;36.16;18.88;101409.22;5015585;28;45432;-46
2023/06/04 07:47:24;;;;;;;;;4.25;2.25;;;;;36.21;18.89;101400.00;5015935;28;45306;-46
2023/06/04 07:49:50;;;;;;;;;1.80;1.80;;;;;36.48;18.49;101413.09;5015829;28;45323;-49
2023/06/04 07:52:15;;;;;;;;;2.50;2.25;;;;;36.72;18.54;101416.53;5015590;28;46037;-45
2023/06/04 07:54:42;;;;;;;;;1.75;1.25;;;;;36.93;18.52;101407.84;4998060;28;45715;-45
2023/06/04 07:57:08;;;;;;;;;4.80;2.60;;;;;37.21;17.89;101400.34;5015560;28;45333;-48
2023/06/04 07:59:33;;;;;;;;;1.60;1.60;;;;;37.42;17.55;101406.25;5015953;28;45350;-46
2023/06/04 08:01:59;;;;;;;;;4.00;4.00;;;;;37.60;17.93;101416.41;5015374;28;46084;-45
2023/06/04 08:04:25;;;;;;;;;1.25;1.25;;;;;37.68;17.67;101398.19;5015422;28;45418;-49
2023/06/04 08:06:51;;;;;;;;;2.50;2.25;;;;;37.83;17.12;101394.19;5015323;28;45440;-48
2023/06/04 08:09:18;;;;;;;;;2.80;2.80;;;;;38.11;17.16;101398.53;5015630;28;45580;-45
2023/06/04 08:11:44;;;;;;;;;4.80;4.80;;;;;38.32;17.22;101396.06;5015723;28;45555;-44
2023/06/04 08:14:13;;;;;;;;;3.80;3.00;;;;;38.44;17.13;101399.06;5018879;28;45414;-44
2023/06/04 08:16:40;;;;;;;;;2.20;2.00;;;;;38.62;17.04;101397.19;5019294;28;45373;-46
2023/06/04 08:19:06;;;;;;;;;4.00;2.80;;;;;38.90;16.73;101397.81;5019201;28;45457;-44
2023/06/04 08:21:33;;;;;;;;;4.40;2.40;;;;;39.13;16.51;101401.31;5018668;28;47080;-49
2023/06/04 08:23:59;;;;;;;;;4.00;3.40;;;;;39.27;16.09;101389.22;5018594;28;45396;-47
2023/06/04 08:26:24;;;;;;;;;2.50;2.50;;;;;39.41;16.45;101387.94;5019003;28;45322;-45
2023/06/04 08:28:50;;;;;;;;;3.00;3.00;;;;;39.65;16.46;101387.47;5018962;28;45471;-45
2023/06/04 08:31:16;;;;;;;;;3.00;3.00;;;;;39.85;16.15;101391.56;5018546;28;47026;-47
2023/06/04 08:33:42;;;;;;;;;5.00;3.75;;;;;40.03;15.82;101397.91;5018799;28;45542;-48
2023/06/04 08:36:08;;;;;;;;;2.60;2.60;;;;;40.07;15.77;101386.94;5018577;28;45398;-45
2023/06/04 08:38:33;;;;;;;;;3.00;3.00;;;;;40.31;16.00;101395.59;5018989;28;45418;-44
2023/06/04 08:41:14;;;;;;;;;2.75;2.75;;;;;40.44;16.16;101398.50;5000435;28;47233;-46
2023/06/04 08:43:43;;;;;;;;;1.40;1.40;;;;;40.56;15.49;101387.50;5018426;28;45370;-46
2023/06/04 08:46:09;;;;;;;;;4.20;3.40;;;;;40.66;15.30;101392.69;5018746;28;45661;-47
2023/06/04 08:48:35;;;;;;;;;2.25;2.25;;;;;40.78;15.32;101390.03;5018722;28;45399;-50
2023/06/04 08:51:05;;;;;;;;;2.80;2.80;;;;;40.78;14.56;101381.66;5018136;28;47155;-47
2023/06/04 08:53:31;;;;;;;;;2.00;2.00;;;;;40.89;15.06;101394.06;5018449;28;45470;-44
2023/06/04 08:55:56;;;;;;;;;2.00;2.00;;;;;40.95;15.30;101397.47;5018511;28;45428;-54
2023/06/04 08:58:23;;;;;;;;;1.00;1.00;;;;;40.90;14.87;101392.91;5018890;28;45314;-52
2023/06/04 09:00:48;;;;;;;;;2.00;2.00;;;;;40.99;14.62;101394.88;5018273;28;47302;-53
2023/06/04 09:03:15;;;;;;;;;2.00;2.00;;;;;41.10;14.81;101396.13;5018209;28;45416;-53
2023/06/04 09:05:47;;;;;;;;;2.00;2.00;;;;;41.20;14.62;101392.91;5018605;28;45762;-53
2023/06/04 09:08:15;;;;;;;;;2.60;2.60;;;;;41.20;14.60;101390.13;5018538;28;45446;-51
2023/06/04 09:10:41;;;;;;;;;3.20;2.60;;;;;41.30;14.59;101383.34;5018714;28;45771;-45
2023/06/04 09:13:08;;;;;;;;;3.25;2.00;;;;;41.21;15.54;101397.34;5018339;28;45342;-46
2023/06/04 09:15:33;;;;;;;;;3.40;3.40;;;;;41.36;14.09;101381.97;5018201;28;45339;-45
2023/06/04 09:17:58;;;;;;;;;1.50;1.50;;;;;41.25;14.13;101386.31;5018538;28;45219;-48
2023/06/04 09:20:24;;;;;;;;;4.00;3.00;;;;;41.08;14.55;101384.47;5017976;28;46602;-53
2023/06/04 09:22:50;;;;;;;;;2.50;2.50;;;;;40.93;14.33;101382.25;5017929;28;45259;-45
2023/06/04 09:25:25;;;;;;;;;1.50;1.25;;;;;40.72;14.89;101373.81;5017013;28;45389;-47
2023/06/04 09:27:52;;;;;;;;;2.40;1.80;;;;;40.36;14.46;101378.69;5018139;28;45267;-49
2023/06/04 09:30:17;;;;;;;;;2.00;2.00;;;;;40.15;14.59;101369.41;5017001;28;45387;-50
2023/06/04 09:32:43;;;;;;;;;2.50;2.00;;;;;40.18;14.60;101381.88;5017963;28;45394;-47
2023/06/04 09:35:12;;;;;;;;;3.00;3.00;;;;;39.99;15.05;101382.19;5018035;28;45291;-47
2023/06/04 09:37:38;;;;;;;;;4.00;2.60;;;;;39.75;14.37;101377.19;5017846;28;45383;-46
2023/06/04 09:40:07;;;;;;;;;1.60;1.60;;;;;39.46;14.75;101384.19;5017766;28;45350;-44
2023/06/04 09:42:45;;;;;;;;;3.60;1.80;;;;;39.12;14.60;101366.28;5018292;28;45333;-48
2023/06/04 09:45:11;;;;;;;;;3.40;2.80;;;;;38.85;14.65;101395.19;5017726;28;45395;-43
2023/06/04 09:47:45;;;;;;;;;2.00;1.00;;;;;38.50;15.64;101394.19;5017878;28;45455;-47
2023/06/04 09:50:11;;;;;;;;;2.40;2.40;;;;;38.23;15.99;101399.91;4999918;28;46606;-45
2023/06/04 09:52:39;;;;;;;;;4.40;3.00;;;;;37.87;15.58;101392.47;5016505;28;45472;-42
2023/06/04 09:55:18;;;;;;;;;2.80;2.80;;;;;37.66;16.75;101406.00;5017791;28;45409;-46
2023/06/04 09:57:49;;;;;;;;;3.00;2.60;;;;;37.50;16.01;101399.16;5017879;28;45453;-44
2023/06/04 10:00:23;;;;;;;;;3.80;2.80;;;;;37.20;16.38;101404.22;5017153;28;45892;-52
2023/06/04 10:02:50;;;;;;;;;5.00;4.00;;;;;36.91;16.43;101399.78;5017444;28;45926;-45
2023/06/04 10:05:16;;;;;;;;;3.60;2.40;;;;;36.58;16.77;101407.41;4999075;28;45240;-44
2023/06/04 10:07:44;;;;;;;;;2.25;2.00;;;;;36.22;16.70;101396.09;5017477;28;45380;-56
2023/06/04 10:10:15;;;;;;;;;1.00;1.00;;;;;36.08;16.65;101400.78;5017278;28;46030;-42
2023/06/04 10:12:41;;;;;;;;;2.80;2.20;;;;;35.84;16.59;101407.22;5017285;28;45211;-49
2023/06/04 10:15:11;;;;;;;;;2.80;2.00;;;;;35.70;16.73;101406.34;5017323;28;45441;-44
2023/06/04 10:17:38;;;;;;;;;5.20;3.60;;;;;35.55;16.92;101409.31;5017443;28;45493;-52
2023/06/04 10:20:08;;;;;;;;;4.40;2.60;;;;;35.38;17.45;101398.72;5016964;28;46042;-50
2023/06/04 10:22:35;;;;;;;;;2.40;2.40;;;;;35.20;17.07;101406.72;5016759;28;45329;-44
2023/06/04 10:25:01;;;;;;;;;4.00;3.20;;;;;35.11;17.73;101400.19;5017050;28;45362;-50
2023/06/04 10:27:27;;;;;;;;;3.40;1.20;;;;;34.88;16.92;101401.00;5017288;28;45744;-43
2023/06/04 10:29:53;;;;;;;;;3.20;3.20;;;;;34.60;17.86;101406.28;5016608;28;46095;-44
2023/06/04 10:32:19;;;;;;;;;2.60;2.00;;;;;34.36;17.60;101394.34;5016779;28;45413;-44
2023/06/04 10:34:46;;;;;;;;;4.40;2.00;;;;;34.21;17.93;101404.41;5016036;28;45311;-51
2023/06/04 10:37:21;;;;;;;;;3.40;3.40;;;;;34.13;18.31;101406.97;5017011;28;45556;-46
2023/06/04 10:39:55;;;;;;;;;4.00;2.40;;;;;34.02;18.43;101397.94;5016651;28;45507;-46
2023/06/04 10:42:22;;;;;;;;;2.40;2.40;;;;;33.89;18.01;101399.41;5016750;28;45305;-51
2023/06/04 10:44:50;;;;;;;;;3.20;2.20;;;;;33.76;17.62;101391.78;5016643;28;45411;-45
2023/06/04 10:47:22;;;;;;;;;6.00;4.00;;;;;33.61;18.00;101395.44;5016903;28;45488;-45
2023/06/04 10:49:50;;;;;;;;;2.80;2.80;;;;;33.42;18.32;101399.97;5016517;28;46904;-45
2023/06/04 10:52:15;;;;;;;;;3.40;2.00;;;;;33.20;18.78;101394.81;5016392;28;45333;-46
2023/06/04 10:54:42;;;;;;;;;3.00;3.00;;;;;32.94;18.65;101399.59;5016816;28;45385;-45
2023/06/04 10:57:18;;;;;;;;;2.60;2.00;;;;;32.41;18.98;101383.47;5016548;28;45450;-44
2023/06/04 10:59:57;;;;;;;;;4.40;3.40;;;;;31.90;19.42;101382.59;5016618;28;46233;-53
2023/06/04 11:02:23;;;;;;;;;2.80;2.80;;;;;31.53;19.41;101389.94;5015722;28;45437;-52
2023/06/04 11:05:06;;;;;;;;;10.40;7.40;;;;;31.02;20.13;101397.97;5016344;28;45371;-55
2023/06/04 11:07:48;;;;;;;;;7.20;6.00;;;;;30.62;20.65;101394.97;5016130;28;45452;-45
2023/06/04 11:10:14;;;;;;;;;3.00;3.00;;;;;30.33;20.99;101381.59;5016071;28;45516;-43
2023/06/04 11:12:50;;;;;;;;;4.40;2.60;;;;;30.23;21.43;101400.75;5015551;28;45421;-51
2023/06/04 11:15:16;;;;;;;;;3.00;3.00;;;;;30.02;21.65;101397.78;5015859;28;45235;-45
2023/06/04 11:17:55;;;;;;;;;4.00;4.00;;;;;29.80;21.37;101397.84;5016600;28;45438;-48
2023/06/04 11:20:22;;;;;;;;;4.00;2.00;;;;;29.73;21.48;101410.13;4998374;28;47182;-54
2023/06/04 11:22:56;;;;;;;;;2.20;2.20;;;;;29.63;21.25;101418.25;5014842;28;45494;-43